Time;durP1;ratioP1;P1;durP2;ratioP2;P2;SDS_P1;SDS_P2;PMS_P1;PMS_P2;Temp;Humidity;BMP_temperature;BMP_pressure;BME280_temperature;BME280_humidity;BME280_pressure;Samples;Min_cycle;Max_cycle;Signal;HPM_P1;HPM_P2
2021/12/30 00:00:50;;;;;;;37.80;7.70;;;12.90;99.90;;;;;;5076151;28;20103;-77
2021/12/30 00:03:16;;;;;;;43.25;10.68;;;13.00;99.90;;;;;;5078687;28;20025;-77
2021/12/30 00:05:42;;;;;;;43.08;8.43;;;12.90;99.90;;;;;;5080983;28;20031;-77
2021/12/30 00:08:08;;;;;;;46.33;8.43;;;12.90;99.90;;;;;;5087225;28;20031;-77
2021/12/30 00:10:34;;;;;;;45.58;7.72;;;12.90;99.90;;;;;;5089617;28;20031;-78
2021/12/30 00:13:00;;;;;;;41.42;8.77;;;13.00;99.90;;;;;;5080709;28;20050;-77
2021/12/30 00:15:26;;;;;;;44.47;8.13;;;13.00;99.90;;;;;;5081161;28;20044;-77
2021/12/30 00:17:52;;;;;;;39.55;8.30;;;13.00;99.90;;;;;;5078612;28;20024;-77
2021/12/30 00:20:19;;;;;;;39.33;9.02;;;13.00;99.90;;;;;;5079325;28;20035;-78
2021/12/30 00:22:46;;;;;;;41.22;7.40;;;13.00;99.90;;;;;;5086114;28;20051;-77
2021/12/30 00:25:13;;;;;;;41.25;7.45;;;13.10;99.90;;;;;;5078277;28;20031;-76
2021/12/30 00:27:39;;;;;;;32.05;7.10;;;13.00;99.90;;;;;;5083197;28;20767;-78
2021/12/30 00:30:08;;;;;;;37.63;7.35;;;13.00;99.90;;;;;;5081827;28;20028;-77
2021/12/30 00:32:34;;;;;;;44.95;7.47;;;13.10;99.90;;;;;;5079057;28;20137;-77
2021/12/30 00:34:59;;;;;;;41.05;7.85;;;13.20;99.90;;;;;;5083939;28;20685;-77
2021/12/30 00:37:25;;;;;;;35.95;6.72;;;13.20;99.90;;;;;;5081269;28;20044;-77
2021/12/30 00:39:51;;;;;;;40.20;7.20;;;13.20;99.90;;;;;;5087313;28;20418;-77
2021/12/30 00:42:16;;;;;;;32.65;5.93;;;13.20;99.90;;;;;;5084904;28;20117;-77
2021/12/30 00:44:42;;;;;;;41.47;7.10;;;13.20;99.90;;;;;;5091082;28;20035;-77
2021/12/30 00:47:08;;;;;;;33.88;7.30;;;13.20;99.90;;;;;;5088823;28;20024;-78
2021/12/30 00:49:34;;;;;;;40.88;6.72;;;13.20;99.90;;;;;;5081815;28;20605;-77
2021/12/30 00:51:59;;;;;;;34.78;7.10;;;13.20;99.90;;;;;;5082706;28;20031;-77
2021/12/30 00:54:25;;;;;;;41.33;7.10;;;13.20;99.90;;;;;;5081520;28;20034;-78
2021/12/30 00:56:51;;;;;;;38.67;6.47;;;13.20;99.90;;;;;;5084316;28;20059;-78
2021/12/30 00:59:17;;;;;;;39.40;7.05;;;13.20;99.90;;;;;;5085470;28;20476;-77
2021/12/30 01:01:43;;;;;;;42.22;7.40;;;13.20;99.90;;;;;;5092010;28;20016;-78
2021/12/30 01:04:09;;;;;;;28.15;7.38;;;13.30;99.90;;;;;;5083017;28;20037;-77
2021/12/30 01:06:35;;;;;;;36.25;7.30;;;13.20;99.90;;;;;;5091115;28;20027;-77
2021/12/30 01:09:01;;;;;;;39.85;7.25;;;13.30;99.90;;;;;;5089218;28;20028;-78
2021/12/30 01:11:27;;;;;;;34.13;7.38;;;13.30;99.90;;;;;;5083643;28;20487;-78
2021/12/30 01:14:13;;;;;;;38.03;7.65;;;13.30;99.90;;;;;;5085714;28;20831;-77
2021/12/30 01:16:44;;;;;;;27.55;6.47;;;13.40;99.90;;;;;;5085553;28;20044;-77
2021/12/30 01:19:42;;;;;;;39.95;8.10;;;13.40;99.90;;;;;;5085395;28;20047;-77
2021/12/30 01:22:12;;;;;;;51.72;8.82;;;13.40;99.90;;;;;;5082495;28;20074;-78
2021/12/30 01:24:38;;;;;;;43.65;8.55;;;13.50;99.90;;;;;;5083835;28;20028;-77
2021/12/30 01:27:04;;;;;;;39.13;8.10;;;13.50;99.90;;;;;;5075620;28;20104;-77
2021/12/30 01:29:30;;;;;;;43.78;8.32;;;13.40;99.90;;;;;;5084451;28;20472;-78
2021/12/30 01:31:57;;;;;;;41.20;8.80;;;13.40;99.90;;;;;;5088326;28;20103;-78
2021/12/30 01:34:23;;;;;;;44.47;8.20;;;13.50;99.90;;;;;;5081747;28;20080;-77
2021/12/30 01:36:49;;;;;;;39.65;8.20;;;13.50;99.90;;;;;;5080386;28;20064;-77
2021/12/30 01:39:17;;;;;;;36.42;8.38;;;13.40;99.90;;;;;;5085668;28;20045;-77
2021/12/30 01:41:44;;;;;;;36.90;8.05;;;13.40;99.90;;;;;;5081357;28;20043;-77
2021/12/30 01:44:10;;;;;;;43.42;8.80;;;13.40;99.90;;;;;;5083729;28;20055;-78
2021/12/30 01:46:41;;;;;;;39.17;7.85;;;13.50;99.90;;;;;;5081793;28;20031;-78
2021/12/30 01:49:08;;;;;;;45.90;8.95;;;13.40;99.90;;;;;;5081905;28;20025;-78
2021/12/30 01:51:33;;;;;;;34.65;9.18;;;13.50;99.90;;;;;;5086972;28;20031;-78
2021/12/30 01:53:59;;;;;;;34.05;9.68;;;13.60;99.90;;;;;;5084544;28;20385;-77
2021/12/30 01:56:25;;;;;;;45.28;8.95;;;13.60;99.90;;;;;;5081090;28;20063;-78
2021/12/30 01:58:51;;;;;;;51.38;11.32;;;13.60;99.90;;;;;;5084602;28;20048;-78
2021/12/30 02:01:16;;;;;;;37.15;10.18;;;13.60;99.90;;;;;;5093843;28;20024;-78
2021/12/30 02:03:42;;;;;;;49.25;9.43;;;13.70;99.90;;;;;;5081458;28;20033;-78
2021/12/30 02:06:07;;;;;;;41.58;10.00;;;13.70;99.90;;;;;;5082112;28;20393;-78
2021/12/30 02:08:33;;;;;;;52.63;10.40;;;13.70;99.90;;;;;;5090013;28;20507;-81
2021/12/30 02:10:59;;;;;;;32.58;9.45;;;13.70;99.90;;;;;;5084546;28;20660;-80
2021/12/30 02:13:25;;;;;;;47.15;10.52;;;13.80;99.90;;;;;;5085411;28;20099;-79
2021/12/30 02:15:51;;;;;;;40.63;11.13;;;13.70;99.90;;;;;;5075941;28;20024;-78
2021/12/30 02:18:17;;;;;;;45.08;11.25;;;13.80;99.90;;;;;;5074366;28;20048;-79
2021/12/30 02:20:53;;;;;;;45.72;10.15;;;13.80;99.90;;;;;;5079409;28;20013;-80
2021/12/30 02:23:28;;;;;;;41.95;10.45;;;13.80;99.90;;;;;;5078875;28;20031;-81
2021/12/30 02:25:56;;;;;;;53.13;12.27;;;13.90;99.90;;;;;;5078584;28;20441;-79
2021/12/30 02:28:25;;;;;;;49.50;12.07;;;13.80;99.90;;;;;;5079746;28;20031;-80
2021/12/30 02:30:53;;;;;;;53.28;12.15;;;13.90;99.90;;;;;;5080895;28;20055;-78
2021/12/30 02:33:19;;;;;;;63.13;13.07;;;13.90;99.90;;;;;;5079096;28;20027;-78
2021/12/30 02:35:44;;;;;;;49.75;12.80;;;13.90;99.90;;;;;;5083659;28;20028;-77
2021/12/30 02:38:11;;;;;;;53.22;13.02;;;13.80;99.90;;;;;;5085701;28;20503;-77
2021/12/30 02:40:41;;;;;;;40.50;10.98;;;13.80;99.90;;;;;;5082159;28;20063;-78
2021/12/30 02:43:11;;;;;;;59.08;12.75;;;13.80;99.90;;;;;;5077602;28;20387;-77
2021/12/30 02:45:38;;;;;;;60.20;13.80;;;13.90;99.90;;;;;;5082170;28;20074;-77
2021/12/30 02:48:04;;;;;;;51.70;13.15;;;13.90;99.90;;;;;;5084323;28;20040;-78
2021/12/30 02:50:30;;;;;;;44.15;12.73;;;13.80;99.90;;;;;;5082014;28;20017;-78
2021/12/30 02:52:56;;;;;;;45.20;12.65;;;13.80;99.90;;;;;;5080665;28;20028;-78
2021/12/30 02:55:22;;;;;;;32.42;10.63;;;13.90;99.90;;;;;;5084186;28;20692;-78
2021/12/30 02:57:48;;;;;;;36.90;12.45;;;13.90;99.90;;;;;;5079989;28;20075;-78
2021/12/30 03:00:15;;;;;;;46.15;13.55;;;14.00;99.90;;;;;;5079595;28;20045;-78
2021/12/30 03:02:41;;;;;;;50.85;13.68;;;13.90;99.90;;;;;;5081646;28;20021;-79
2021/12/30 03:05:08;;;;;;;45.05;14.60;;;14.00;99.90;;;;;;5077913;28;20044;-79
2021/12/30 03:07:35;;;;;;;50.60;14.98;;;13.90;99.90;;;;;;5082559;28;20830;-78
2021/12/30 03:10:01;;;;;;;46.05;14.52;;;14.00;99.90;;;;;;5080811;28;20024;-78
2021/12/30 03:12:27;;;;;;;43.97;12.95;;;14.00;99.90;;;;;;5083600;28;20052;-81
2021/12/30 03:14:54;;;;;;;35.35;12.07;;;14.00;99.90;;;;;;5083090;28;20048;-78
2021/12/30 03:17:19;;;;;;;35.70;12.20;;;14.00;99.90;;;;;;5078318;28;20644;-78
2021/12/30 03:19:45;;;;;;;39.33;12.02;;;14.00;99.90;;;;;;5078776;28;20024;-79
2021/12/30 03:22:12;;;;;;;30.60;11.40;;;14.00;99.90;;;;;;5079997;28;20024;-78
2021/12/30 03:24:37;;;;;;;22.13;9.50;;;13.90;99.90;;;;;;5081913;28;20047;-80
2021/12/30 03:27:06;;;;;;;19.98;8.48;;;13.90;99.90;;;;;;5077736;28;20064;-81
2021/12/30 03:29:32;;;;;;;19.02;10.50;;;13.90;99.90;;;;;;5081329;28;20100;-80
2021/12/30 03:31:57;;;;;;;15.35;8.43;;;13.90;99.90;;;;;;5085287;28;20056;-80
2021/12/30 03:34:23;;;;;;;13.60;6.95;;;14.00;99.90;;;;;;5076417;28;20059;-82
2021/12/30 03:36:49;;;;;;;14.63;6.07;;;14.00;99.90;;;;;;5082718;28;20404;-81
2021/12/30 03:39:15;;;;;;;9.05;5.10;;;13.90;99.90;;;;;;5079163;28;20036;-81
2021/12/30 03:41:41;;;;;;;11.43;5.20;;;13.90;99.90;;;;;;5085420;28;20527;-76
2021/12/30 03:44:07;;;;;;;6.07;4.68;;;14.00;99.90;;;;;;5076914;28;20033;-77
2021/12/30 03:46:32;;;;;;;9.05;4.20;;;14.00;99.90;;;;;;5082133;28;20027;-77
2021/12/30 03:49:00;;;;;;;16.92;13.38;;;14.00;99.90;;;;;;5074927;28;20035;-77
2021/12/30 03:51:26;;;;;;;8.65;5.25;;;14.00;99.90;;;;;;5082186;28;20012;-77
2021/12/30 03:53:57;;;;;;;9.73;4.88;;;14.00;99.90;;;;;;5084639;28;20050;-79
2021/12/30 03:56:28;;;;;;;8.38;3.95;;;14.00;99.90;;;;;;5080355;28;20016;-78
2021/12/30 03:58:54;;;;;;;6.40;4.00;;;14.00;99.90;;;;;;5074260;28;20036;-80
2021/12/30 04:01:22;;;;;;;8.20;4.18;;;14.00;99.90;;;;;;5081326;28;20066;-77
2021/12/30 04:03:49;;;;;;;6.70;3.95;;;14.10;99.90;;;;;;5079297;28;20084;-77
2021/12/30 04:06:15;;;;;;;5.90;3.67;;;14.10;99.90;;;;;;5079493;28;20032;-79
2021/12/30 04:08:43;;;;;;;6.05;3.55;;;14.10;99.90;;;;;;5084571;28;20016;-82
2021/12/30 04:11:09;;;;;;;9.00;3.63;;;14.10;99.90;;;;;;5080993;28;20021;-84
2021/12/30 04:13:35;;;;;;;4.63;2.80;;;14.10;99.90;;;;;;5085144;28;20024;-76
2021/12/30 04:16:01;;;;;;;8.23;3.83;;;14.10;99.90;;;;;;5082666;28;20082;-77
2021/12/30 04:18:27;;;;;;;9.52;4.18;;;14.10;99.90;;;;;;5085600;28;20395;-85
2021/12/30 04:20:54;;;;;;;5.55;3.67;;;14.20;99.90;;;;;;5087796;28;20052;-84
2021/12/30 04:23:20;;;;;;;4.55;3.42;;;14.10;99.90;;;;;;5084080;28;20025;-77
2021/12/30 04:25:46;;;;;;;8.50;4.32;;;14.20;99.90;;;;;;5085310;28;20028;-76
2021/12/30 04:28:12;;;;;;;5.85;3.65;;;14.20;99.90;;;;;;5083910;28;20056;-76
2021/12/30 04:30:37;;;;;;;6.18;3.55;;;14.20;99.90;;;;;;5087100;28;20028;-76
2021/12/30 04:33:04;;;;;;;8.63;4.03;;;14.20;99.90;;;;;;5084124;28;20028;-76
2021/12/30 04:35:29;;;;;;;8.45;4.53;;;14.20;99.90;;;;;;5085970;28;20024;-76
2021/12/30 04:37:55;;;;;;;6.68;4.60;;;14.20;99.90;;;;;;5083914;28;20678;-78
2021/12/30 04:40:21;;;;;;;6.40;4.57;;;14.20;99.90;;;;;;5081651;28;20028;-81
2021/12/30 04:42:46;;;;;;;9.38;5.40;;;14.30;99.90;;;;;;5086054;28;20056;-78
2021/12/30 04:45:13;;;;;;;10.55;5.45;;;14.30;99.90;;;;;;5085791;28;20032;-77
2021/12/30 04:47:40;;;;;;;11.48;6.65;;;14.30;99.90;;;;;;5082475;28;20028;-76
2021/12/30 04:50:08;;;;;;;11.23;6.00;;;14.30;99.90;;;;;;5082946;28;20025;-76
2021/12/30 04:52:34;;;;;;;10.13;6.13;;;14.30;99.90;;;;;;5082492;28;20150;-81
2021/12/30 04:55:00;;;;;;;7.78;5.80;;;14.30;99.90;;;;;;5085179;28;20103;-76
2021/12/30 04:57:25;;;;;;;7.28;4.82;;;14.30;99.90;;;;;;5087408;28;20020;-76
2021/12/30 04:59:51;;;;;;;6.15;4.47;;;14.30;99.90;;;;;;5082845;28;20028;-75
2021/12/30 05:02:17;;;;;;;6.30;4.47;;;14.40;99.90;;;;;;5082946;28;20378;-77
2021/12/30 05:04:42;;;;;;;5.50;4.53;;;14.30;99.90;;;;;;5092124;28;20495;-77
2021/12/30 05:07:08;;;;;;;5.97;5.38;;;14.40;99.90;;;;;;5088286;28;20550;-85
2021/12/30 05:09:34;;;;;;;6.00;3.90;;;14.40;99.90;;;;;;5080359;28;20174;-77
2021/12/30 05:12:00;;;;;;;5.43;4.93;;;14.40;99.90;;;;;;5083746;28;20025;-79
2021/12/30 05:14:26;;;;;;;4.57;3.47;;;14.50;99.90;;;;;;5083304;28;20077;-78
2021/12/30 05:16:52;;;;;;;4.53;3.47;;;14.40;99.90;;;;;;5081103;28;20016;-78
2021/12/30 05:19:18;;;;;;;3.40;3.10;;;14.50;99.90;;;;;;5085127;28;20043;-78
2021/12/30 05:21:44;;;;;;;4.97;3.20;;;14.50;99.90;;;;;;5084294;28;20025;-78
2021/12/30 05:24:10;;;;;;;4.22;2.80;;;14.50;99.90;;;;;;5082507;28;20039;-78
2021/12/30 05:26:35;;;;;;;4.13;2.58;;;14.50;99.90;;;;;;5084317;28;20055;-78
2021/12/30 05:29:03;;;;;;;3.10;2.70;;;14.50;99.90;;;;;;5086855;28;20115;-78
2021/12/30 05:31:29;;;;;;;2.83;2.53;;;14.50;99.90;;;;;;5081692;28;20035;-78
2021/12/30 05:33:55;;;;;;;2.60;2.40;;;14.60;99.90;;;;;;5078310;28;20044;-77
2021/12/30 05:36:20;;;;;;;2.83;2.63;;;14.60;99.90;;;;;;5085521;28;20483;-79
2021/12/30 05:38:47;;;;;;;3.40;2.50;;;14.60;99.90;;;;;;5084300;28;20396;-77
2021/12/30 05:41:12;;;;;;;4.15;2.15;;;14.60;99.90;;;;;;5082193;28;20027;-78
2021/12/30 05:43:38;;;;;;;2.05;1.70;;;14.60;99.90;;;;;;5083162;28;20016;-78
2021/12/30 05:46:04;;;;;;;1.88;1.70;;;14.50;99.90;;;;;;5081758;28;20043;-78
2021/12/30 05:48:30;;;;;;;2.90;1.75;;;14.60;99.90;;;;;;5088637;28;20384;-78
2021/12/30 05:50:59;;;;;;;1.80;1.70;;;14.60;99.90;;;;;;5079180;28;20103;-78
2021/12/30 05:53:26;;;;;;;2.10;1.60;;;14.60;99.90;;;;;;5083163;28;20101;-79
2021/12/30 05:55:52;;;;;;;1.50;1.40;;;14.60;99.90;;;;;;5088922;28;20035;-79
2021/12/30 05:58:18;;;;;;;1.92;1.83;;;14.60;99.90;;;;;;5080615;28;20703;-77
2021/12/30 06:00:44;;;;;;;3.78;1.85;;;14.50;99.90;;;;;;5082539;28;20401;-77
2021/12/30 06:03:10;;;;;;;1.83;1.73;;;14.50;99.90;;;;;;5084536;28;20033;-79
2021/12/30 06:05:35;;;;;;;2.00;1.70;;;14.50;99.90;;;;;;5083515;28;20558;-80
2021/12/30 06:08:01;;;;;;;1.80;1.70;;;14.50;99.90;;;;;;5081330;28;20047;-80
2021/12/30 06:10:27;;;;;;;4.32;2.05;;;14.50;99.90;;;;;;5086735;28;20508;-79
2021/12/30 06:12:52;;;;;;;1.40;1.30;;;14.50;99.90;;;;;;5080828;28;20062;-79
2021/12/30 06:15:18;;;;;;;1.17;1.05;;;14.50;99.90;;;;;;5083649;28;20082;-78
2021/12/30 06:17:44;;;;;;;1.63;1.52;;;14.50;99.90;;;;;;5084542;28;20379;-78
2021/12/30 06:20:13;;;;;;;1.55;1.38;;;14.60;99.90;;;;;;5077439;28;20532;-78
2021/12/30 06:22:40;;;;;;;1.30;1.20;;;14.50;99.90;;;;;;5085272;28;20074;-80
2021/12/30 06:25:07;;;;;;;1.90;1.48;;;14.60;99.90;;;;;;5083915;28;20101;-79
2021/12/30 06:27:33;;;;;;;1.40;1.30;;;14.60;99.90;;;;;;5083353;28;20036;-80
2021/12/30 06:29:59;;;;;;;1.90;1.42;;;14.60;99.90;;;;;;5083762;28;20069;-80
2021/12/30 06:32:24;;;;;;;1.50;1.40;;;14.60;99.90;;;;;;5084157;28;20496;-80
2021/12/30 06:34:50;;;;;;;2.00;1.80;;;14.60;99.90;;;;;;5082320;28;20028;-80
2021/12/30 06:37:16;;;;;;;1.60;1.13;;;14.60;99.90;;;;;;5083955;28;20179;-79
2021/12/30 06:39:42;;;;;;;1.30;1.20;;;14.70;99.90;;;;;;5079299;28;20037;-79
2021/12/30 06:42:07;;;;;;;1.35;1.23;;;14.60;99.90;;;;;;5080990;28;20016;-79
2021/12/30 06:44:33;;;;;;;2.55;1.50;;;14.60;99.90;;;;;;5078771;28;20036;-78
2021/12/30 06:47:01;;;;;;;1.40;1.30;;;14.60;99.90;;;;;;5083591;28;20096;-79
2021/12/30 06:49:35;;;;;;;1.25;1.20;;;14.60;99.90;;;;;;5083598;28;20021;-79
2021/12/30 06:52:06;;;;;;;2.08;1.30;;;14.60;99.90;;;;;;5083646;28;20036;-81
2021/12/30 06:54:32;;;;;;;1.95;1.50;;;14.60;99.90;;;;;;5083491;28;20174;-79
2021/12/30 06:57:00;;;;;;;1.20;1.10;;;14.70;99.90;;;;;;5087943;28;20082;-79
2021/12/30 06:59:27;;;;;;;2.10;1.10;;;14.60;99.90;;;;;;5079564;28;20469;-78
2021/12/30 07:01:52;;;;;;;1.75;1.38;;;14.60;99.90;;;;;;5080803;28;20123;-80
2021/12/30 07:04:18;;;;;;;1.52;1.08;;;14.70;99.90;;;;;;5082112;28;20493;-80
2021/12/30 07:06:44;;;;;;;2.15;1.38;;;14.60;99.90;;;;;;5079980;28;20065;-80
2021/12/30 07:09:09;;;;;;;1.65;1.27;;;14.50;99.90;;;;;;5084081;28;20472;-80
2021/12/30 07:11:35;;;;;;;1.80;1.27;;;14.60;99.90;;;;;;5081442;28;20381;-79
2021/12/30 07:14:01;;;;;;;1.48;1.25;;;14.50;99.90;;;;;;5084137;28;20039;-79
2021/12/30 07:16:27;;;;;;;3.20;1.98;;;14.60;99.90;;;;;;5079845;28;20097;-80
2021/12/30 07:18:52;;;;;;;1.70;1.60;;;14.60;99.90;;;;;;5082350;28;20055;-80
2021/12/30 07:21:18;;;;;;;1.23;1.15;;;14.70;99.90;;;;;;5079787;28;20051;-80
2021/12/30 07:23:44;;;;;;;2.60;1.35;;;14.60;99.90;;;;;;5078868;28;20224;-81
2021/12/30 07:26:09;;;;;;;1.52;1.42;;;14.50;99.90;;;;;;5074627;28;20082;-80
2021/12/30 07:28:35;;;;;;;2.17;1.58;;;14.60;99.90;;;;;;5082884;28;20035;-79
2021/12/30 07:31:01;;;;;;;1.10;1.10;;;14.70;99.90;;;;;;5080786;28;20027;-79
2021/12/30 07:33:26;;;;;;;2.15;1.38;;;14.60;99.90;;;;;;5082472;28;20684;-78
2021/12/30 07:35:52;;;;;;;3.10;1.60;;;14.70;99.90;;;;;;5081393;28;20139;-78
2021/12/30 07:38:18;;;;;;;2.88;2.10;;;14.60;99.90;;;;;;5081114;28;20040;-78
2021/12/30 07:40:43;;;;;;;3.22;1.40;;;14.60;99.90;;;;;;5082404;28;20021;-79
2021/12/30 07:43:10;;;;;;;1.40;1.30;;;14.60;99.90;;;;;;5081635;28;20028;-78
2021/12/30 07:45:35;;;;;;;1.40;1.30;;;14.70;99.90;;;;;;5082192;28;20016;-78
2021/12/30 07:48:01;;;;;;;1.35;1.25;;;14.70;99.90;;;;;;5076637;28;20086;-79
2021/12/30 07:50:27;;;;;;;2.55;1.45;;;14.70;99.90;;;;;;5083270;28;20142;-78
2021/12/30 07:52:53;;;;;;;1.25;1.15;;;14.70;99.90;;;;;;5082758;28;20024;-80
2021/12/30 07:55:19;;;;;;;1.20;1.10;;;14.70;99.90;;;;;;5079410;28;20024;-77
2021/12/30 07:57:45;;;;;;;1.33;1.23;;;14.70;99.90;;;;;;5083535;28;20020;-80
2021/12/30 08:00:15;;;;;;;2.15;1.58;;;14.70;99.90;;;;;;5075458;28;20028;-78
2021/12/30 08:02:42;;;;;;;1.60;1.30;;;14.70;99.90;;;;;;5075775;28;20017;-78
2021/12/30 08:05:19;;;;;;;2.40;1.55;;;14.70;99.90;;;;;;5082234;28;20040;-79
2021/12/30 08:07:46;;;;;;;2.83;1.23;;;14.70;99.90;;;;;;5081363;28;20776;-80
2021/12/30 08:10:14;;;;;;;2.40;1.35;;;14.70;99.90;;;;;;5083486;28;20036;-78
2021/12/30 08:12:44;;;;;;;2.63;1.13;;;14.70;99.90;;;;;;5081011;28;20036;-78
2021/12/30 08:15:11;;;;;;;1.70;1.20;;;14.70;99.90;;;;;;5085823;28;20031;-78
2021/12/30 08:17:38;;;;;;;5.97;1.33;;;14.80;99.90;;;;;;5076576;28;20559;-78
2021/12/30 08:20:05;;;;;;;1.90;1.05;;;14.80;99.90;;;;;;5082716;28;20107;-77
2021/12/30 08:22:31;;;;;;;1.35;1.17;;;14.80;99.90;;;;;;5078575;28;20017;-80
2021/12/30 08:24:57;;;;;;;1.33;1.10;;;14.90;99.90;;;;;;5080825;28;20487;-78
2021/12/30 08:27:23;;;;;;;1.73;1.08;;;14.80;99.90;;;;;;5082541;28;20103;-77
2021/12/30 08:29:48;;;;;;;3.75;1.08;;;14.80;99.90;;;;;;5085386;28;20153;-80
2021/12/30 08:32:16;;;;;;;3.13;1.58;;;14.80;99.90;;;;;;5083836;28;20422;-79
2021/12/30 08:34:44;;;;;;;4.20;1.05;;;14.90;99.90;;;;;;5078980;28;20506;-80
2021/12/30 08:37:11;;;;;;;2.08;1.50;;;14.90;99.90;;;;;;5079635;28;20027;-81
2021/12/30 08:39:38;;;;;;;2.05;1.10;;;14.90;99.90;;;;;;5081592;28;20036;-78
2021/12/30 08:42:05;;;;;;;2.00;1.45;;;15.00;99.90;;;;;;5079442;28;20044;-78
2021/12/30 08:44:31;;;;;;;3.20;1.45;;;14.90;99.90;;;;;;5081440;28;20025;-78
2021/12/30 08:46:57;;;;;;;3.13;1.48;;;14.90;99.90;;;;;;5080804;28;20024;-76
2021/12/30 08:49:23;;;;;;;1.95;1.67;;;15.00;99.90;;;;;;5081547;28;20063;-76
2021/12/30 08:51:48;;;;;;;2.40;2.10;;;15.00;99.90;;;;;;5080953;28;20030;-76
2021/12/30 08:54:14;;;;;;;2.92;1.88;;;15.00;99.90;;;;;;5081636;28;20051;-77
2021/12/30 08:56:40;;;;;;;2.78;2.00;;;15.00;99.90;;;;;;5076350;28;20012;-77
2021/12/30 08:59:05;;;;;;;2.45;1.90;;;15.10;99.90;;;;;;5082103;28;20043;-76
2021/12/30 09:01:31;;;;;;;4.32;2.20;;;15.10;99.90;;;;;;5080914;28;20096;-77
2021/12/30 09:03:56;;;;;;;3.78;2.65;;;15.10;99.90;;;;;;5085368;28;20115;-76
2021/12/30 09:06:22;;;;;;;2.90;2.17;;;15.10;99.90;;;;;;5081749;28;20025;-76
2021/12/30 09:08:48;;;;;;;2.45;2.05;;;15.20;99.90;;;;;;5086249;28;20071;-76
2021/12/30 09:11:14;;;;;;;5.07;2.80;;;15.10;99.90;;;;;;5082813;28;20028;-76
2021/12/30 09:13:40;;;;;;;2.55;2.15;;;15.20;99.90;;;;;;5086276;28;20059;-76
2021/12/30 09:16:07;;;;;;;6.13;2.38;;;15.10;99.90;;;;;;5080918;28;20024;-76
2021/12/30 09:18:33;;;;;;;5.22;2.58;;;15.10;99.90;;;;;;5079786;28;20032;-76
2021/12/30 09:20:59;;;;;;;6.25;2.58;;;15.10;99.90;;;;;;5080402;28;20546;-76
2021/12/30 09:23:24;;;;;;;5.00;2.20;;;15.20;99.90;;;;;;5082742;28;20101;-76
2021/12/30 09:25:50;;;;;;;4.13;2.50;;;15.10;99.90;;;;;;5083351;28;20104;-76
2021/12/30 09:28:15;;;;;;;6.25;2.63;;;15.10;99.90;;;;;;5085162;28;20035;-77
2021/12/30 09:30:43;;;;;;;8.77;2.60;;;15.10;99.90;;;;;;5083687;28;20028;-76
2021/12/30 09:33:09;;;;;;;4.25;2.17;;;15.10;99.90;;;;;;5083761;28;20107;-76
2021/12/30 09:35:35;;;;;;;6.63;2.88;;;15.20;99.90;;;;;;5078971;28;20020;-77
2021/12/30 09:38:01;;;;;;;3.75;2.40;;;15.20;99.90;;;;;;5083179;28;20488;-77
2021/12/30 09:40:28;;;;;;;4.07;2.00;;;15.20;99.90;;;;;;5082562;28;20108;-78
2021/12/30 09:43:01;;;;;;;5.30;2.25;;;15.30;99.90;;;;;;5085474;28;20028;-78
2021/12/30 09:45:29;;;;;;;7.70;2.38;;;15.30;99.90;;;;;;5085926;28;20107;-77
2021/12/30 09:47:58;;;;;;;6.93;2.90;;;15.30;99.90;;;;;;5081358;28;20483;-77
2021/12/30 09:50:32;;;;;;;11.68;2.78;;;15.40;99.90;;;;;;5082672;28;20028;-77
2021/12/30 09:52:59;;;;;;;3.65;2.20;;;15.50;99.90;;;;;;5079972;28;20025;-76
2021/12/30 09:55:25;;;;;;;6.22;2.70;;;15.50;99.90;;;;;;5080536;28;20055;-78
2021/12/30 09:57:52;;;;;;;7.28;2.60;;;15.60;99.90;;;;;;5078668;28;20429;-78
2021/12/30 10:00:18;;;;;;;3.42;2.13;;;15.50;99.90;;;;;;5084931;28;20105;-78
2021/12/30 10:02:45;;;;;;;9.38;2.80;;;15.50;99.90;;;;;;5082360;28;20066;-78
2021/12/30 10:05:20;;;;;;;10.80;3.05;;;15.50;99.90;;;;;;5082916;28;20047;-78
2021/12/30 10:07:46;;;;;;;7.05;3.13;;;15.50;99.90;;;;;;5084893;28;20099;-78
2021/12/30 10:10:33;;;;;;;8.80;3.25;;;15.60;99.90;;;;;;5081705;28;20034;-78
2021/12/30 10:13:01;;;;;;;8.65;4.15;;;15.50;99.90;;;;;;5084251;28;20050;-78
2021/12/30 10:15:39;;;;;;;7.32;3.10;;;15.60;99.90;;;;;;5082318;28;20036;-78
2021/12/30 10:18:05;;;;;;;8.73;3.53;;;15.60;99.90;;;;;;5085392;28;20376;-78
2021/12/30 10:20:31;;;;;;;11.48;3.00;;;15.60;99.90;;;;;;5076814;28;20028;-78
2021/12/30 10:23:16;;;;;;;9.15;3.08;;;15.50;99.90;;;;;;5081041;28;20024;-79
2021/12/30 10:25:44;;;;;;;8.15;3.58;;;15.50;99.90;;;;;;5086069;28;20044;-79
2021/12/30 10:28:17;;;;;;;7.93;3.70;;;15.50;99.90;;;;;;5076803;28;20423;-79
2021/12/30 10:30:43;;;;;;;;;;;15.60;99.90;;;;;;5081167;28;20031;-79
2021/12/30 10:33:15;;;;;;;8.90;3.25;;;15.60;99.90;;;;;;5083932;28;19939;-79
2021/12/30 10:35:41;;;;;;;8.63;3.37;;;15.60;99.90;;;;;;5082575;28;20403;-78
2021/12/30 10:38:11;;;;;;;12.68;3.75;;;15.70;99.90;;;;;;5084445;28;20037;-79
2021/12/30 10:40:43;;;;;;;12.57;3.50;;;15.70;99.90;;;;;;5080121;28;20430;-78
2021/12/30 10:43:31;;;;;;;7.80;3.67;;;15.70;99.90;;;;;;5081609;28;20021;-80
2021/12/30 10:46:18;;;;;;;8.50;3.00;;;15.70;99.90;;;;;;5078471;28;20450;-79
2021/12/30 10:48:49;;;;;;;8.02;3.20;;;15.70;99.90;;;;;;5082075;28;20024;-79
2021/12/30 10:51:17;;;;;;;9.63;3.20;;;15.70;99.90;;;;;;5079662;28;20031;-80
2021/12/30 10:53:43;;;;;;;12.90;4.20;;;15.70;99.90;;;;;;5079472;28;20028;-80
2021/12/30 10:56:24;;;;;;;9.15;3.75;;;15.70;99.90;;;;;;5079476;28;20032;-80
2021/12/30 10:58:52;;;;;;;11.48;4.53;;;15.70;99.90;;;;;;5085882;28;20039;-81
2021/12/30 11:01:20;;;;;;;12.95;4.50;;;15.70;99.90;;;;;;5076585;28;20031;-80
2021/12/30 11:03:59;;;;;;;10.80;4.45;;;15.70;99.90;;;;;;5077912;28;20119;-80
2021/12/30 11:06:25;;;;;;;13.52;4.68;;;15.70;99.90;;;;;;5080285;28;20484;-79
2021/12/30 11:09:04;;;;;;;10.95;4.53;;;15.70;99.90;;;;;;5081603;28;20481;-77
2021/12/30 11:11:30;;;;;;;9.85;4.20;;;15.70;99.90;;;;;;5075091;28;20520;-76
2021/12/30 11:14:15;;;;;;;8.98;3.88;;;15.70;99.90;;;;;;5068960;28;20103;-76
2021/12/30 11:17:04;;;;;;;9.00;4.38;;;15.70;99.90;;;;;;5080757;28;20024;-78
2021/12/30 11:19:42;;;;;;;7.53;3.90;;;15.70;99.90;;;;;;5083024;28;20044;-76
2021/12/30 11:22:14;;;;;;;5.97;4.47;;;15.70;99.90;;;;;;5081557;28;20016;-76
2021/12/30 11:24:40;;;;;;;11.27;7.73;;;15.70;99.90;;;;;;5079139;28;20385;-76
2021/12/30 11:27:10;;;;;;;10.85;7.05;;;15.80;99.90;;;;;;5085976;28;20024;-76
2021/12/30 11:29:36;;;;;;;12.98;4.40;;;15.80;99.90;;;;;;5083336;28;20050;-76
2021/12/30 11:32:04;;;;;;;10.63;3.85;;;15.80;99.90;;;;;;5085206;28;20041;-76
2021/12/30 11:34:30;;;;;;;8.43;4.47;;;15.80;99.90;;;;;;5079180;28;20103;-79
2021/12/30 11:36:56;;;;;;;10.50;4.05;;;15.80;99.90;;;;;;5081381;28;20107;-80
2021/12/30 11:39:23;;;;;;;7.75;3.90;;;15.80;99.90;;;;;;5081297;28;20040;-78
2021/12/30 11:42:07;;;;;;;9.55;4.97;;;15.80;99.90;;;;;;5079241;28;20024;-77
2021/12/30 11:44:40;;;;;;;8.77;4.40;;;15.90;99.90;;;;;;5078726;28;20086;-78
2021/12/30 11:47:08;;;;;;;11.68;4.00;;;15.90;99.90;;;;;;5081061;28;20012;-78
2021/12/30 11:49:58;;;;;;;8.98;4.55;;;15.90;99.90;;;;;;5077947;28;20126;-78
2021/12/30 11:52:46;;;;;;;8.93;4.03;;;15.90;99.90;;;;;;5080718;28;20023;-79
2021/12/30 11:55:41;;;;;;;9.63;5.47;;;15.90;99.90;;;;;;5083280;28;20504;-77
2021/12/30 11:58:28;;;;;;;9.05;3.60;;;15.90;99.90;;;;;;5078075;28;20039;-82
2021/12/30 12:01:19;;;;;;;9.63;3.58;;;15.90;99.90;;;;;;5083564;28;20078;-81
2021/12/30 12:03:55;;;;;;;6.30;3.40;;;15.90;99.90;;;;;;5081072;28;20032;-81
2021/12/30 12:06:56;;;;;;;6.68;3.90;;;16.00;99.90;;;;;;5083270;28;20024;-81
2021/12/30 12:09:27;;;;;;;6.93;3.53;;;15.90;99.90;;;;;;5024209;28;20478;-81
2021/12/30 12:12:05;;;;;;;7.75;3.60;;;16.00;99.90;;;;;;5071443;28;20067;-81
2021/12/30 12:14:39;;;;;;;10.90;3.88;;;16.00;99.90;;;;;;5077081;28;20154;-82
2021/12/30 12:17:10;;;;;;;6.60;3.53;;;16.10;99.90;;;;;;5081660;28;20457;-82
2021/12/30 12:19:43;;;;;;;7.63;3.70;;;16.10;99.90;;;;;;5080910;28;20173;-82
2021/12/30 12:22:21;;;;;;;9.73;7.20;;;16.10;99.90;;;;;;5082760;28;20016;-82
2021/12/30 12:24:48;;;;;;;7.20;4.30;;;16.00;99.90;;;;;;5081795;28;20035;-82
2021/12/30 12:27:20;;;;;;;6.85;3.55;;;16.10;99.90;;;;;;5079539;28;20506;-82
2021/12/30 12:29:48;;;;;;;5.97;3.58;;;16.00;99.90;;;;;;5079787;28;20116;-82
2021/12/30 12:32:20;;;;;;;8.63;4.05;;;15.90;99.90;;;;;;5077658;28;20062;-81
2021/12/30 12:34:55;;;;;;;6.53;4.30;;;15.90;99.90;;;;;;5087030;28;20489;-81
2021/12/30 12:37:32;;;;;;;7.53;3.95;;;15.90;99.90;;;;;;5083590;28;20020;-81
2021/12/30 12:40:20;;;;;;;10.27;5.53;;;16.00;99.90;;;;;;5085712;28;20115;-79
2021/12/30 12:42:50;;;;;;;7.65;3.58;;;16.00;99.90;;;;;;5079353;28;20024;-81
2021/12/30 12:45:22;;;;;;;7.53;4.90;;;16.00;99.90;;;;;;5082761;28;20027;-80
2021/12/30 12:48:20;;;;;;;6.93;3.60;;;16.00;99.90;;;;;;5085381;28;20082;-81